sensor_id;sensor_type;location;lat;lon;timestamp;pressure;altitude;pressure_sealevel;temperature;humidity
21824;BME280;11074;48.596;9.238;2023-12-14T00:02:07;97174.97;;;7.53;100.00
21824;BME280;11074;48.596;9.238;2023-12-14T00:04:33;97168.06;;;7.52;100.00
21824;BME280;11074;48.596;9.238;2023-12-14T00:06:59;97179.22;;;7.49;100.00
21824;BME280;11074;48.596;9.238;2023-12-14T00:09:24;97177.06;;;7.46;100.00
21824;BME280;11074;48.596;9.238;2023-12-14T00:11:50;97174.66;;;7.45;100.00
21824;BME280;11074;48.596;9.238;2023-12-14T00:14:16;97174.69;;;7.50;100.00
21824;BME280;11074;48.596;9.238;2023-12-14T00:16:41;97178.94;;;7.51;100.00
21824;BME280;11074;48.596;9.238;2023-12-14T00:19:07;97181.88;;;7.49;100.00
21824;BME280;11074;48.596;9.238;2023-12-14T00:21:32;97188.00;;;7.50;100.00
21824;BME280;11074;48.596;9.238;2023-12-14T00:23:58;97199.13;;;7.47;100.00
21824;BME280;11074;48.596;9.238;2023-12-14T00:26:24;97198.88;;;7.48;100.00
21824;BME280;11074;48.596;9.238;2023-12-14T00:28:49;97201.81;;;7.52;100.00
21824;BME280;11074;48.596;9.238;2023-12-14T00:31:15;97200.19;;;7.46;100.00
21824;BME280;11074;48.596;9.238;2023-12-14T00:33:41;97204.78;;;7.55;100.00
21824;BME280;11074;48.596;9.238;2023-12-14T00:36:07;97203.94;;;7.50;100.00
21824;BME280;11074;48.596;9.238;2023-12-14T00:38:33;97203.94;;;7.50;100.00
21824;BME280;11074;48.596;9.238;2023-12-14T00:40:58;97217.22;;;7.45;100.00
21824;BME280;11074;48.596;9.238;2023-12-14T00:43:24;97213.78;;;7.49;100.00
21824;BME280;11074;48.596;9.238;2023-12-14T00:45:50;97219.84;;;7.40;100.00
21824;BME280;11074;48.596;9.238;2023-12-14T00:48:15;97224.09;;;7.46;100.00
21824;BME280;11074;48.596;9.238;2023-12-14T00:50:41;97221.88;;;7.32;100.00
21824;BME280;11074;48.596;9.238;2023-12-14T00:53:07;97230.22;;;7.46;100.00
21824;BME280;11074;48.596;9.238;2023-12-14T00:55:32;97232.66;;;7.48;100.00
21824;BME280;11074;48.596;9.238;2023-12-14T00:57:58;97236.56;;;7.40;100.00
21824;BME280;11074;48.596;9.238;2023-12-14T01:00:23;97242.19;;;7.44;100.00
21824;BME280;11074;48.596;9.238;2023-12-14T01:02:49;97241.03;;;7.34;100.00
21824;BME280;11074;48.596;9.238;2023-12-14T01:05:15;97245.63;;;7.39;100.00
21824;BME280;11074;48.596;9.238;2023-12-14T01:07:40;97249.34;;;7.43;100.00
21824;BME280;11074;48.596;9.238;2023-12-14T01:10:07;97255.44;;;7.39;100.00
21824;BME280;11074;48.596;9.238;2023-12-14T01:12:33;97249.06;;;7.40;100.00
21824;BME280;11074;48.596;9.238;2023-12-14T01:14:58;97249.06;;;7.40;100.00
21824;BME280;11074;48.596;9.238;2023-12-14T01:17:24;97251.16;;;7.38;100.00
21824;BME280;11074;48.596;9.238;2023-12-14T01:19:49;97258.41;;;7.42;100.00
21824;BME280;11074;48.596;9.238;2023-12-14T01:22:15;97261.06;;;7.42;100.00
21824;BME280;11074;48.596;9.238;2023-12-14T01:24:41;97263.94;;;7.41;100.00
21824;BME280;11074;48.596;9.238;2023-12-14T01:27:06;97262.38;;;7.40;100.00
21824;BME280;11074;48.596;9.238;2023-12-14T01:29:34;97282.88;;;7.44;100.00
21824;BME280;11074;48.596;9.238;2023-12-14T01:32:00;97287.03;;;7.35;100.00
21824;BME280;11074;48.596;9.238;2023-12-14T01:34:25;97290.00;;;7.39;100.00
21824;BME280;11074;48.596;9.238;2023-12-14T01:36:52;97289.22;;;7.43;100.00
21824;BME280;11074;48.596;9.238;2023-12-14T01:39:17;97294.31;;;7.45;100.00
21824;BME280;11074;48.596;9.238;2023-12-14T01:41:43;97302.78;;;7.42;100.00
21824;BME280;11074;48.596;9.238;2023-12-14T01:44:09;97298.28;;;7.42;100.00
21824;BME280;11074;48.596;9.238;2023-12-14T01:46:34;97303.84;;;7.41;100.00
21824;BME280;11074;48.596;9.238;2023-12-14T01:49:00;97307.59;;;7.45;100.00
21824;BME280;11074;48.596;9.238;2023-12-14T01:51:26;97315.16;;;7.26;100.00
21824;BME280;11074;48.596;9.238;2023-12-14T01:53:51;97314.94;;;7.32;100.00
21824;BME280;11074;48.596;9.238;2023-12-14T01:56:17;97313.38;;;7.37;100.00
21824;BME280;11074;48.596;9.238;2023-12-14T01:58:43;97322.16;;;7.37;100.00
21824;BME280;11074;48.596;9.238;2023-12-14T02:01:23;97324.28;;;7.40;100.00
21824;BME280;11074;48.596;9.238;2023-12-14T02:03:53;97320.06;;;7.39;100.00
21824;BME280;11074;48.596;9.238;2023-12-14T02:06:20;97328.25;;;7.38;100.00
21824;BME280;11074;48.596;9.238;2023-12-14T02:08:46;97321.59;;;7.35;100.00
21824;BME280;11074;48.596;9.238;2023-12-14T02:11:12;97330.97;;;7.43;100.00
21824;BME280;11074;48.596;9.238;2023-12-14T02:13:38;97331.78;;;7.43;100.00
21824;BME280;11074;48.596;9.238;2023-12-14T02:16:04;97337.84;;;7.39;100.00
21824;BME280;11074;48.596;9.238;2023-12-14T02:18:30;97329.06;;;7.38;100.00
21824;BME280;11074;48.596;9.238;2023-12-14T02:20:55;97333.34;;;7.39;100.00
21824;BME280;11074;48.596;9.238;2023-12-14T02:23:21;97347.72;;;7.43;100.00
21824;BME280;11074;48.596;9.238;2023-12-14T02:25:47;97336.28;;;7.43;100.00
21824;BME280;11074;48.596;9.238;2023-12-14T02:28:12;97333.56;;;7.38;100.00
21824;BME280;11074;48.596;9.238;2023-12-14T02:30:38;97339.47;;;7.40;100.00
21824;BME280;11074;48.596;9.238;2023-12-14T02:33:04;97343.22;;;7.44;100.00
21824;BME280;11074;48.596;9.238;2023-12-14T02:35:30;97350.09;;;7.40;100.00
21824;BME280;11074;48.596;9.238;2023-12-14T02:37:55;97345.28;;;7.37;100.00
21824;BME280;11074;48.596;9.238;2023-12-14T02:40:21;97344.22;;;7.38;100.00
21824;BME280;11074;48.596;9.238;2023-12-14T02:42:47;97362.53;;;7.34;100.00
21824;BME280;11074;48.596;9.238;2023-12-14T02:45:12;97367.00;;;7.28;100.00
21824;BME280;11074;48.596;9.238;2023-12-14T02:47:38;97357.19;;;7.29;100.00
21824;BME280;11074;48.596;9.238;2023-12-14T02:50:04;97351.88;;;7.29;100.00
21824;BME280;11074;48.596;9.238;2023-12-14T02:52:30;97362.50;;;7.29;100.00
21824;BME280;11074;48.596;9.238;2023-12-14T02:54:56;97360.63;;;7.29;100.00
21824;BME280;11074;48.596;9.238;2023-12-14T02:57:22;97366.44;;;7.26;100.00
21824;BME280;11074;48.596;9.238;2023-12-14T02:59:47;97375.22;;;7.27;100.00
21824;BME280;11074;48.596;9.238;2023-12-14T03:02:13;97379.19;;;7.24;100.00
21824;BME280;11074;48.596;9.238;2023-12-14T03:04:39;97378.63;;;7.22;100.00
21824;BME280;11074;48.596;9.238;2023-12-14T03:07:05;97373.38;;;7.27;100.00
21824;BME280;11074;48.596;9.238;2023-12-14T03:09:31;97374.16;;;7.28;100.00
21824;BME280;11074;48.596;9.238;2023-12-14T03:11:57;97380.84;;;7.30;100.00
21824;BME280;11074;48.596;9.238;2023-12-14T03:14:23;97376.88;;;7.33;100.00
21824;BME280;11074;48.596;9.238;2023-12-14T03:16:49;97379.22;;;7.29;100.00
21824;BME280;11074;48.596;9.238;2023-12-14T03:19:15;97390.13;;;7.28;100.00
21824;BME280;11074;48.596;9.238;2023-12-14T03:21:42;97389.25;;;7.22;100.00
21824;BME280;11074;48.596;9.238;2023-12-14T03:24:07;97400.75;;;7.28;100.00
21824;BME280;11074;48.596;9.238;2023-12-14T03:26:35;97410.03;;;7.25;100.00
21824;BME280;11074;48.596;9.238;2023-12-14T03:29:01;97404.22;;;7.28;100.00
21824;BME280;11074;48.596;9.238;2023-12-14T03:31:26;97410.34;;;7.29;100.00
21824;BME280;11074;48.596;9.238;2023-12-14T03:33:52;97413.06;;;7.34;100.00
21824;BME280;11074;48.596;9.238;2023-12-14T03:36:18;97414.34;;;7.31;100.00
21824;BME280;11074;48.596;9.238;2023-12-14T03:38:43;97418.59;;;7.32;100.00
21824;BME280;11074;48.596;9.238;2023-12-14T03:41:09;97425.97;;;7.25;100.00
21824;BME280;11074;48.596;9.238;2023-12-14T03:43:35;97428.38;;;7.27;100.00
21824;BME280;11074;48.596;9.238;2023-12-14T03:46:00;97430.03;;;7.33;100.00
21824;BME280;11074;48.596;9.238;2023-12-14T03:48:26;97432.22;;;7.36;100.00
21824;BME280;11074;48.596;9.238;2023-12-14T03:50:51;97442.03;;;7.36;100.00
21824;BME280;11074;48.596;9.238;2023-12-14T03:53:17;97436.97;;;7.34;100.00
21824;BME280;11074;48.596;9.238;2023-12-14T03:55:43;97442.31;;;7.34;100.00
21824;BME280;11074;48.596;9.238;2023-12-14T03:58:08;97455.59;;;7.34;100.00
21824;BME280;11074;48.596;9.238;2023-12-14T04:00:34;97452.94;;;7.34;100.00
21824;BME280;11074;48.596;9.238;2023-12-14T04:03:00;97459.59;;;7.37;100.00
21824;BME280;11074;48.596;9.238;2023-12-14T04:05:25;97467.63;;;7.42;100.00
21824;BME280;11074;48.596;9.238;2023-12-14T04:07:51;97476.47;;;7.47;100.00
21824;BME280;11074;48.596;9.238;2023-12-14T04:10:17;97479.88;;;7.43;100.00
21824;BME280;11074;48.596;9.238;2023-12-14T04:12:42;97481.47;;;7.44;100.00
21824;BME280;11074;48.596;9.238;2023-12-14T04:15:10;97488.16;;;7.46;100.00
21824;BME280;11074;48.596;9.238;2023-12-14T04:17:36;97487.06;;;7.42;100.00
21824;BME280;11074;48.596;9.238;2023-12-14T04:20:02;97484.69;;;7.46;100.00
21824;BME280;11074;48.596;9.238;2023-12-14T04:22:29;97498.56;;;7.48;100.00
21824;BME280;11074;48.596;9.238;2023-12-14T04:24:54;97508.06;;;7.44;100.00
21824;BME280;11074;48.596;9.238;2023-12-14T04:27:20;97502.97;;;7.37;100.00
21824;BME280;11074;48.596;9.238;2023-12-14T04:29:46;97510.19;;;7.42;100.00
21824;BME280;11074;48.596;9.238;2023-12-14T04:32:12;97512.56;;;7.43;100.00
21824;BME280;11074;48.596;9.238;2023-12-14T04:34:37;97513.88;;;7.41;100.00
21824;BME280;11074;48.596;9.238;2023-12-14T04:37:03;97514.44;;;7.43;100.00
21824;BME280;11074;48.596;9.238;2023-12-14T04:39:29;97520.88;;;7.47;100.00
21824;BME280;11074;48.596;9.238;2023-12-14T04:41:55;97530.59;;;7.36;100.00
21824;BME280;11074;48.596;9.238;2023-12-14T04:44:21;97517.47;;;7.29;100.00
21824;BME280;11074;48.596;9.238;2023-12-14T04:46:50;97535.88;;;7.14;100.00
21824;BME280;11074;48.596;9.238;2023-12-14T04:49:16;97531.75;;;7.23;100.00
21824;BME280;11074;48.596;9.238;2023-12-14T04:51:42;97528.09;;;7.29;100.00
21824;BME280;11074;48.596;9.238;2023-12-14T04:54:08;97535.91;;;7.36;100.00
21824;BME280;11074;48.596;9.238;2023-12-14T04:56:34;97536.72;;;7.37;100.00
21824;BME280;11074;48.596;9.238;2023-12-14T04:59:00;97544.84;;;7.30;100.00
21824;BME280;11074;48.596;9.238;2023-12-14T05:01:26;97544.63;;;7.31;100.00
21824;BME280;11074;48.596;9.238;2023-12-14T05:03:52;97550.50;;;7.33;100.00
21824;BME280;11074;48.596;9.238;2023-12-14T05:06:18;97554.50;;;7.36;100.00
21824;BME280;11074;48.596;9.238;2023-12-14T05:08:44;97559.09;;;7.41;100.00
21824;BME280;11074;48.596;9.238;2023-12-14T05:11:12;97560.69;;;7.42;100.00
21824;BME280;11074;48.596;9.238;2023-12-14T05:13:38;97563.91;;;7.44;100.00
21824;BME280;11074;48.596;9.238;2023-12-14T05:16:04;97566.06;;;7.47;100.00
21824;BME280;11074;48.596;9.238;2023-12-14T05:18:30;97570.16;;;7.54;100.00
21824;BME280;11074;48.596;9.238;2023-12-14T05:20:56;97573.72;;;7.43;100.00
21824;BME280;11074;48.596;9.238;2023-12-14T05:23:22;97575.41;;;7.49;100.00
21824;BME280;11074;48.596;9.238;2023-12-14T05:25:49;97584.22;;;7.50;100.00
21824;BME280;11074;48.596;9.238;2023-12-14T05:28:15;97590.06;;;7.52;100.00
21824;BME280;11074;48.596;9.238;2023-12-14T05:30:41;97588.44;;;7.51;100.00
21824;BME280;11074;48.596;9.238;2023-12-14T05:33:07;97600.22;;;7.55;100.00
21824;BME280;11074;48.596;9.238;2023-12-14T05:35:33;97607.66;;;7.53;100.00
21824;BME280;11074;48.596;9.238;2023-12-14T05:37:58;97606.03;;;7.52;100.00
21824;BME280;11074;48.596;9.238;2023-12-14T05:40:24;97609.81;;;7.56;100.00
21824;BME280;11074;48.596;9.238;2023-12-14T05:42:50;97622.78;;;7.52;100.00
21824;BME280;11074;48.596;9.238;2023-12-14T05:45:16;97627.56;;;7.50;100.00
21824;BME280;11074;48.596;9.238;2023-12-14T05:47:44;97625.00;;;7.39;100.00
21824;BME280;11074;48.596;9.238;2023-12-14T05:50:10;97624.13;;;7.33;100.00
21824;BME280;11074;48.596;9.238;2023-12-14T05:52:36;97635.09;;;7.37;100.00
21824;BME280;11074;48.596;9.238;2023-12-14T05:55:08;97640.00;;;7.28;100.00
21824;BME280;11074;48.596;9.238;2023-12-14T05:57:36;97636.84;;;7.31;100.00
21824;BME280;11074;48.596;9.238;2023-12-14T06:00:04;97645.47;;;7.38;100.00
21824;BME280;11074;48.596;9.238;2023-12-14T06:02:31;97648.13;;;7.38;100.00
21824;BME280;11074;48.596;9.238;2023-12-14T06:04:57;97648.94;;;7.39;100.00
21824;BME280;11074;48.596;9.238;2023-12-14T06:07:24;97648.13;;;7.38;100.00
21824;BME280;11074;48.596;9.238;2023-12-14T06:09:49;97644.72;;;7.43;100.00
21824;BME280;11074;48.596;9.238;2023-12-14T06:12:15;97650.13;;;7.48;100.00
21824;BME280;11074;48.596;9.238;2023-12-14T06:14:41;97650.03;;;7.43;100.00
21824;BME280;11074;48.596;9.238;2023-12-14T06:17:06;97658.13;;;7.48;100.00
21824;BME280;11074;48.596;9.238;2023-12-14T06:19:32;97662.13;;;7.50;100.00
21824;BME280;11074;48.596;9.238;2023-12-14T06:21:58;97677.03;;;7.51;100.00
21824;BME280;11074;48.596;9.238;2023-12-14T06:24:23;97686.28;;;7.49;100.00
21824;BME280;11074;48.596;9.238;2023-12-14T06:26:49;97683.75;;;7.37;100.00
21824;BME280;11074;48.596;9.238;2023-12-14T06:29:15;97692.91;;;7.46;100.00
21824;BME280;11074;48.596;9.238;2023-12-14T06:31:40;97691.88;;;7.47;100.00
21824;BME280;11074;48.596;9.238;2023-12-14T06:34:06;97698.78;;;7.48;100.00
21824;BME280;11074;48.596;9.238;2023-12-14T06:36:33;97705.47;;;7.51;100.00
21824;BME280;11074;48.596;9.238;2023-12-14T06:39:01;97710.56;;;7.52;100.00
21824;BME280;11074;48.596;9.238;2023-12-14T06:41:28;97719.09;;;7.54;100.00
21824;BME280;11074;48.596;9.238;2023-12-14T06:43:54;97726.84;;;7.56;100.00
21824;BME280;11074;48.596;9.238;2023-12-14T06:46:21;97718.34;;;7.59;100.00
21824;BME280;11074;48.596;9.238;2023-12-14T06:48:47;97728.22;;;7.58;100.00
21824;BME280;11074;48.596;9.238;2023-12-14T06:51:13;97728.22;;;7.58;100.00
21824;BME280;11074;48.596;9.238;2023-12-14T06:53:43;97741.50;;;7.58;100.00
21824;BME280;11074;48.596;9.238;2023-12-14T06:56:09;97742.81;;;7.56;100.00
21824;BME280;11074;48.596;9.238;2023-12-14T06:58:41;97752.03;;;7.53;100.00
21824;BME280;11074;48.596;9.238;2023-12-14T07:01:12;97757.63;;;7.52;100.00
21824;BME280;11074;48.596;9.238;2023-12-14T07:03:43;97765.94;;;7.55;100.00
21824;BME280;11074;48.596;9.238;2023-12-14T07:06:16;97767.78;;;7.55;100.00
21824;BME280;11074;48.596;9.238;2023-12-14T07:08:43;97780.03;;;7.56;100.00
21824;BME280;11074;48.596;9.238;2023-12-14T07:11:09;97788.03;;;7.56;100.00
21824;BME280;11074;48.596;9.238;2023-12-14T07:13:35;97790.69;;;7.56;100.00
21824;BME280;11074;48.596;9.238;2023-12-14T07:16:07;97799.44;;;7.56;100.00
21824;BME280;11074;48.596;9.238;2023-12-14T07:18:44;97804.53;;;7.58;100.00
21824;BME280;11074;48.596;9.238;2023-12-14T07:21:10;97807.75;;;7.60;100.00
21824;BME280;11074;48.596;9.238;2023-12-14T07:23:36;97806.72;;;7.61;100.00
21824;BME280;11074;48.596;9.238;2023-12-14T07:26:03;97808.78;;;7.59;100.00
21824;BME280;11074;48.596;9.238;2023-12-14T07:28:29;97807.50;;;7.61;100.00
21824;BME280;11074;48.596;9.238;2023-12-14T07:30:55;97818.78;;;7.52;100.00
21824;BME280;11074;48.596;9.238;2023-12-14T07:33:20;97823.97;;;7.58;100.00
21824;BME280;11074;48.596;9.238;2023-12-14T07:35:46;97830.56;;;7.56;100.00
21824;BME280;11074;48.596;9.238;2023-12-14T07:38:12;97834.09;;;7.61;100.00
21824;BME280;11074;48.596;9.238;2023-12-14T07:40:38;97829.38;;;7.63;100.00
21824;BME280;11074;48.596;9.238;2023-12-14T07:43:05;97829.66;;;7.67;100.00
21824;BME280;11074;48.596;9.238;2023-12-14T07:45:31;97838.94;;;7.64;100.00
21824;BME280;11074;48.596;9.238;2023-12-14T07:47:56;97841.53;;;7.59;100.00
21824;BME280;11074;48.596;9.238;2023-12-14T07:50:22;97849.84;;;7.63;100.00
21824;BME280;11074;48.596;9.238;2023-12-14T07:52:48;97854.09;;;7.64;100.00
21824;BME280;11074;48.596;9.238;2023-12-14T07:55:14;97851.69;;;7.62;100.00
21824;BME280;11074;48.596;9.238;2023-12-14T07:57:40;97862.06;;;7.64;100.00
21824;BME280;11074;48.596;9.238;2023-12-14T08:00:07;97867.09;;;7.60;100.00
21824;BME280;11074;48.596;9.238;2023-12-14T08:02:36;97864.66;;;7.59;100.00
21824;BME280;11074;48.596;9.238;2023-12-14T08:05:03;97870.78;;;7.59;100.00
21824;BME280;11074;48.596;9.238;2023-12-14T08:07:30;97872.31;;;7.55;100.00
21824;BME280;11074;48.596;9.238;2023-12-14T08:09:56;97879.56;;;7.60;100.00
21824;BME280;11074;48.596;9.238;2023-12-14T08:12:23;97883.34;;;7.64;100.00
21824;BME280;11074;48.596;9.238;2023-12-14T08:14:49;97886.00;;;7.64;100.00
21824;BME280;11074;48.596;9.238;2023-12-14T08:17:15;97894.31;;;7.67;100.00
21824;BME280;11074;48.596;9.238;2023-12-14T08:19:42;97891.66;;;7.67;100.00
21824;BME280;11074;48.596;9.238;2023-12-14T08:22:08;97906.34;;;7.70;100.00
21824;BME280;11074;48.596;9.238;2023-12-14T08:24:37;97911.44;;;7.71;100.00
21824;BME280;11074;48.596;9.238;2023-12-14T08:27:03;97915.13;;;7.70;100.00
21824;BME280;11074;48.596;9.238;2023-12-14T08:29:29;97917.94;;;7.64;100.00
21824;BME280;11074;48.596;9.238;2023-12-14T08:31:54;97929.63;;;7.63;100.00
21824;BME280;11074;48.596;9.238;2023-12-14T08:34:24;97924.66;;;7.66;100.00
21824;BME280;11074;48.596;9.238;2023-12-14T08:36:49;97928.78;;;7.74;100.00
21824;BME280;11074;48.596;9.238;2023-12-14T08:39:15;97931.75;;;7.77;100.00
21824;BME280;11074;48.596;9.238;2023-12-14T08:41:41;97934.19;;;7.79;100.00
21824;BME280;11074;48.596;9.238;2023-12-14T08:44:07;97942.81;;;7.86;100.00
21824;BME280;11074;48.596;9.238;2023-12-14T08:46:45;97941.78;;;7.87;100.00
21824;BME280;11074;48.596;9.238;2023-12-14T08:49:12;97944.91;;;7.84;100.00
21824;BME280;11074;48.596;9.238;2023-12-14T08:51:39;97953.94;;;7.83;100.00
21824;BME280;11074;48.596;9.238;2023-12-14T08:54:06;97958.94;;;7.79;100.00
21824;BME280;11074;48.596;9.238;2023-12-14T08:56:31;97966.53;;;7.87;100.00
21824;BME280;11074;48.596;9.238;2023-12-14T08:58:57;97968.47;;;7.92;100.00
21824;BME280;11074;48.596;9.238;2023-12-14T09:01:25;97971.94;;;7.92;100.00
21824;BME280;11074;48.596;9.238;2023-12-14T09:03:51;97977.28;;;7.92;100.00
21824;BME280;11074;48.596;9.238;2023-12-14T09:06:17;97978.94;;;7.99;100.00
21824;BME280;11074;48.596;9.238;2023-12-14T09:08:44;97991.34;;;7.93;100.00
21824;BME280;11074;48.596;9.238;2023-12-14T09:11:11;98011.53;;;7.89;100.00
21824;BME280;11074;48.596;9.238;2023-12-14T09:13:37;98007.44;;;7.98;100.00
21824;BME280;11074;48.596;9.238;2023-12-14T09:16:03;98013.97;;;8.07;100.00
21824;BME280;11074;48.596;9.238;2023-12-14T09:18:28;98013.03;;;8.13;100.00
21824;BME280;11074;48.596;9.238;2023-12-14T09:20:54;98017.63;;;8.18;100.00
21824;BME280;11074;48.596;9.238;2023-12-14T09:23:20;98019.81;;;8.21;100.00
21824;BME280;11074;48.596;9.238;2023-12-14T09:25:46;98023.38;;;8.26;100.00
21824;BME280;11074;48.596;9.238;2023-12-14T09:28:11;98026.63;;;8.28;100.00
21824;BME280;11074;48.596;9.238;2023-12-14T09:30:37;98039.47;;;8.31;100.00
21824;BME280;11074;48.596;9.238;2023-12-14T09:33:03;98045.34;;;8.33;100.00
21824;BME280;11074;48.596;9.238;2023-12-14T09:35:28;98039.00;;;8.34;100.00
21824;BME280;11074;48.596;9.238;2023-12-14T09:37:55;98045.94;;;8.35;100.00
21824;BME280;11074;48.596;9.238;2023-12-14T09:40:22;98046.72;;;8.36;100.00
21824;BME280;11074;48.596;9.238;2023-12-14T09:42:48;98050.53;;;8.40;100.00
21824;BME280;11074;48.596;9.238;2023-12-14T09:45:17;98061.53;;;8.43;100.00
21824;BME280;11074;48.596;9.238;2023-12-14T09:47:44;98058.06;;;8.43;100.00
21824;BME280;11074;48.596;9.238;2023-12-14T09:50:12;98065.22;;;8.42;100.00
21824;BME280;11074;48.596;9.238;2023-12-14T09:52:40;98060.13;;;8.41;100.00
21824;BME280;11074;48.596;9.238;2023-12-14T09:55:11;98068.22;;;8.46;100.00
21824;BME280;11074;48.596;9.238;2023-12-14T09:57:36;98055.81;;;8.51;100.00
21824;BME280;11074;48.596;9.238;2023-12-14T10:00:02;98067.03;;;8.53;100.00
21824;BME280;11074;48.596;9.238;2023-12-14T10:02:31;98067.19;;;8.64;100.00
21824;BME280;11074;48.596;9.238;2023-12-14T10:04:57;98081.22;;;8.76;100.00
21824;BME280;11074;48.596;9.238;2023-12-14T10:07:22;98076.31;;;8.84;100.00
21824;BME280;11074;48.596;9.238;2023-12-14T10:09:48;98086.31;;;8.77;100.00
21824;BME280;11074;48.596;9.238;2023-12-14T10:12:16;98086.56;;;8.92;100.00
21824;BME280;11074;48.596;9.238;2023-12-14T10:14:42;98087.69;;;8.96;100.00
21824;BME280;11074;48.596;9.238;2023-12-14T10:17:19;98092.63;;;8.88;100.00
21824;BME280;11074;48.596;9.238;2023-12-14T10:19:46;98098.91;;;8.82;100.00
21824;BME280;11074;48.596;9.238;2023-12-14T10:22:17;98098.84;;;8.77;100.00
21824;BME280;11074;48.596;9.238;2023-12-14T10:24:49;98098.50;;;8.73;100.00
21824;BME280;11074;48.596;9.238;2023-12-14T10:27:16;98094.25;;;8.72;100.00
21824;BME280;11074;48.596;9.238;2023-12-14T10:29:42;98097.72;;;8.73;100.00
21824;BME280;11074;48.596;9.238;2023-12-14T10:32:10;98103.53;;;8.70;100.00
21824;BME280;11074;48.596;9.238;2023-12-14T10:34:37;98102.25;;;8.72;100.00
21824;BME280;11074;48.596;9.238;2023-12-14T10:37:05;98113.19;;;8.76;100.00
21824;BME280;11074;48.596;9.238;2023-12-14T10:39:34;98114.75;;;8.72;100.00
21824;BME280;11074;48.596;9.238;2023-12-14T10:42:03;98115.38;;;8.79;100.00
21824;BME280;11074;48.596;9.238;2023-12-14T10:44:36;98118.00;;;8.90;100.00
21824;BME280;11074;48.596;9.238;2023-12-14T10:47:03;98125.59;;;8.98;100.00
21824;BME280;11074;48.596;9.238;2023-12-14T10:49:31;98120.19;;;9.10;100.00
21824;BME280;11074;48.596;9.238;2023-12-14T10:52:01;98118.69;;;9.19;100.00
21824;BME280;11074;48.596;9.238;2023-12-14T10:54:31;98114.44;;;9.18;100.00
21824;BME280;11074;48.596;9.238;2023-12-14T10:56:58;98123.00;;;9.20;100.00
21824;BME280;11074;48.596;9.238;2023-12-14T10:59:24;98124.50;;;9.33;100.00
21824;BME280;11074;48.596;9.238;2023-12-14T11:01:54;98135.19;;;9.33;100.00
21824;BME280;11074;48.596;9.238;2023-12-14T11:04:26;98133.25;;;9.28;100.00
21824;BME280;11074;48.596;9.238;2023-12-14T11:06:53;98139.88;;;9.26;100.00
21824;BME280;11074;48.596;9.238;2023-12-14T11:09:23;98123.63;;;9.27;100.00
21824;BME280;11074;48.596;9.238;2023-12-14T11:14:26;98131.69;;;9.32;100.00
21824;BME280;11074;48.596;9.238;2023-12-14T11:17:05;98132.19;;;9.29;100.00
21824;BME280;11074;48.596;9.238;2023-12-14T11:19:31;98137.22;;;9.26;100.00
21824;BME280;11074;48.596;9.238;2023-12-14T11:22:12;98139.06;;;9.25;100.00
21824;BME280;11074;48.596;9.238;2023-12-14T11:24:42;98138.59;;;9.28;100.00
21824;BME280;11074;48.596;9.238;2023-12-14T11:27:09;98127.31;;;9.26;100.00
21824;BME280;11074;48.596;9.238;2023-12-14T11:29:38;98138.88;;;9.32;100.00
21824;BME280;11074;48.596;9.238;2023-12-14T11:32:07;98139.41;;;9.29;100.00
21824;BME280;11074;48.596;9.238;2023-12-14T11:34:33;98143.44;;;9.31;100.00
21824;BME280;11074;48.596;9.238;2023-12-14T11:36:58;98145.09;;;9.37;100.00
21824;BME280;11074;48.596;9.238;2023-12-14T11:39:24;98145.75;;;9.44;100.00
21824;BME280;11074;48.596;9.238;2023-12-14T11:42:04;98148.44;;;9.44;100.00
21824;BME280;11074;48.596;9.238;2023-12-14T11:44:30;98161.50;;;9.46;100.00
21824;BME280;11074;48.596;9.238;2023-12-14T11:46:58;98168.41;;;9.42;100.00
21824;BME280;11074;48.596;9.238;2023-12-14T11:49:25;98169.44;;;9.41;100.00
21824;BME280;11074;48.596;9.238;2023-12-14T11:51:55;98172.66;;;9.43;100.00
21824;BME280;11074;48.596;9.238;2023-12-14T11:54:21;98171.06;;;9.42;100.00
21824;BME280;11074;48.596;9.238;2023-12-14T11:56:48;98168.16;;;9.43;100.00
21824;BME280;11074;48.596;9.238;2023-12-14T11:59:18;98175.19;;;9.49;100.00
21824;BME280;11074;48.596;9.238;2023-12-14T12:01:58;98179.84;;;9.42;100.00
21824;BME280;11074;48.596;9.238;2023-12-14T12:04:24;98174.72;;;9.36;100.00
21824;BME280;11074;48.596;9.238;2023-12-14T12:07:07;98184.50;;;9.30;100.00
21824;BME280;11074;48.596;9.238;2023-12-14T12:09:41;98186.69;;;9.33;100.00
21824;BME280;11074;48.596;9.238;2023-12-14T12:12:12;98189.50;;;9.27;100.00
21824;BME280;11074;48.596;9.238;2023-12-14T12:14:39;98187.56;;;9.22;100.00
21824;BME280;11074;48.596;9.238;2023-12-14T12:17:06;98189.66;;;9.20;100.00
21824;BME280;11074;48.596;9.238;2023-12-14T12:19:34;98188.53;;;9.16;100.00
21824;BME280;11074;48.596;9.238;2023-12-14T12:22:00;98199.78;;;9.18;100.00
21824;BME280;11074;48.596;9.238;2023-12-14T12:24:26;98198.97;;;9.18;100.00
21824;BME280;11074;48.596;9.238;2023-12-14T12:26:51;98202.66;;;9.17;100.00
21824;BME280;11074;48.596;9.238;2023-12-14T12:29:17;98201.84;;;9.16;100.00
21824;BME280;11074;48.596;9.238;2023-12-14T12:31:43;98197.13;;;9.18;100.00
21824;BME280;11074;48.596;9.238;2023-12-14T12:34:09;98200.81;;;9.17;100.00
21824;BME280;11074;48.596;9.238;2023-12-14T12:36:34;98203.56;;;9.22;100.00
21824;BME280;11074;48.596;9.238;2023-12-14T12:39:00;98206.09;;;9.29;100.00
21824;BME280;11074;48.596;9.238;2023-12-14T12:41:26;98201.13;;;9.37;100.00
21824;BME280;11074;48.596;9.238;2023-12-14T12:43:51;98204.13;;;9.41;100.00
21824;BME280;11074;48.596;9.238;2023-12-14T12:46:17;98198.78;;;9.41;100.00
21824;BME280;11074;48.596;9.238;2023-12-14T12:48:43;98206.88;;;9.46;100.00
21824;BME280;11074;48.596;9.238;2023-12-14T12:51:09;98200.78;;;9.50;100.00
21824;BME280;11074;48.596;9.238;2023-12-14T12:53:35;98203.38;;;9.62;100.00
21824;BME280;11074;48.596;9.238;2023-12-14T12:56:00;98199.41;;;9.64;100.00
21824;BME280;11074;48.596;9.238;2023-12-14T12:58:27;98202.56;;;9.61;100.00
21824;BME280;11074;48.596;9.238;2023-12-14T13:00:53;98208.78;;;9.67;100.00